createdAt,value
2019-05-26T00:02:29.876Z,68.60
2019-05-26T00:04:59.838Z,68.46
2019-05-26T00:07:31.006Z,68.57
2019-05-26T00:10:01.149Z,68.35
2019-05-26T00:12:31.153Z,68.84
2019-05-26T00:15:01.389Z,68.75
2019-05-26T00:17:31.568Z,68.96
2019-05-26T00:20:01.550Z,69.05
2019-05-26T00:22:31.531Z,69.24
2019-05-26T00:25:01.552Z,69.31
2019-05-26T00:27:31.565Z,68.91
2019-05-26T00:30:01.546Z,68.98
2019-05-26T00:32:31.555Z,69.05
2019-05-26T00:35:01.543Z,69.35
2019-05-26T00:37:47.719Z,69.04
2019-05-26T00:40:03.227Z,68.77
2019-05-26T00:42:33.241Z,68.69
2019-05-26T00:45:03.319Z,68.81
2019-05-26T00:47:33.381Z,69.11
2019-05-26T00:50:03.409Z,68.95
2019-05-26T00:52:33.467Z,69.46
2019-05-26T00:55:03.453Z,69.51
2019-05-26T00:57:33.440Z,69.08
2019-05-26T01:02:50.749Z,69.44
2019-05-26T01:05:20.754Z,69.25
2019-05-26T01:08:05.238Z,69.57
2019-05-26T01:10:22.412Z,70.28
2019-05-26T01:12:52.449Z,70.05
2019-05-26T01:15:22.418Z,69.83
2019-05-26T01:17:52.406Z,69.64
2019-05-26T01:20:22.353Z,69.46
2019-05-26T01:22:53.934Z,69.51
2019-05-26T01:25:24.067Z,69.67
2019-05-26T01:27:54.061Z,69.38
2019-05-26T01:30:36.526Z,70.25
2019-05-26T01:33:07.120Z,70.95
2019-05-26T01:35:40.257Z,71.00
2019-05-26T01:38:23.382Z,70.26
2019-05-26T01:40:44.089Z,70.15
2019-05-26T01:43:14.459Z,70.37
2019-05-26T01:45:44.460Z,70.20
2019-05-26T01:48:14.473Z,70.58
2019-05-26T01:50:44.473Z,70.16
2019-05-26T01:53:14.503Z,69.88
2019-05-26T01:55:44.505Z,69.91
2019-05-26T01:58:14.896Z,69.72
2019-05-26T02:00:44.863Z,70.30
2019-05-26T02:03:14.906Z,69.94
2019-05-26T02:05:44.985Z,69.67
2019-05-26T02:08:14.953Z,70.01
2019-05-26T02:10:44.976Z,70.24
2019-05-26T02:13:15.463Z,70.47
2019-05-26T02:15:45.515Z,72.06
2019-05-26T02:18:15.513Z,72.16
2019-05-26T02:20:45.452Z,71.05
2019-05-26T02:23:15.407Z,71.03
2019-05-26T02:25:45.399Z,71.16
2019-05-26T02:28:15.353Z,71.06
2019-05-26T02:30:45.334Z,71.41
2019-05-26T02:33:15.284Z,71.06
2019-05-26T02:35:45.249Z,70.97
2019-05-26T02:38:15.193Z,71.07
2019-05-26T02:40:45.173Z,71.88
2019-05-26T02:43:15.170Z,71.75
2019-05-26T02:45:45.208Z,71.50
2019-05-26T02:48:15.113Z,71.33
2019-05-26T02:50:45.156Z,71.14
2019-05-26T02:53:15.107Z,70.78
2019-05-26T02:55:45.070Z,71.20
2019-05-26T02:58:15.009Z,71.13
2019-05-26T03:00:45.841Z,71.76
2019-05-26T03:03:16.478Z,71.42
2019-05-26T03:05:47.030Z,71.16
2019-05-26T03:08:17.700Z,71.12
2019-05-26T03:10:49.292Z,71.64
2019-05-26T03:13:19.423Z,71.49
2019-05-26T03:15:49.410Z,71.51
2019-05-26T03:18:19.367Z,71.62
2019-05-26T03:20:49.342Z,71.79
2019-05-26T03:23:19.301Z,73.48
2019-05-26T03:25:49.282Z,72.65
2019-05-26T03:28:19.239Z,71.74
2019-05-26T03:30:49.225Z,71.64
2019-05-26T03:33:19.174Z,72.17
2019-05-26T03:35:49.141Z,71.81
2019-05-26T03:38:19.097Z,72.02
2019-05-26T03:40:49.079Z,71.67
2019-05-26T03:43:19.044Z,71.21
2019-05-26T03:46:18.183Z,71.52
2019-05-26T03:48:48.200Z,71.86
2019-05-26T03:51:18.206Z,71.94
2019-05-26T03:53:48.131Z,72.12
2019-05-26T03:56:18.144Z,71.73
2019-05-26T03:58:48.170Z,72.07
2019-05-26T04:01:18.228Z,71.83
2019-05-26T04:03:48.243Z,72.04
2019-05-26T04:06:18.299Z,71.73
2019-05-26T04:08:48.326Z,72.21
2019-05-26T04:11:18.389Z,72.54
2019-05-26T04:13:48.425Z,72.27
2019-05-26T04:16:18.457Z,73.11
2019-05-26T04:18:48.472Z,72.61
2019-05-26T04:21:18.451Z,73.89
2019-05-26T04:23:48.428Z,74.59
2019-05-26T04:26:18.393Z,74.16
2019-05-26T04:28:48.356Z,74.98
2019-05-26T04:31:18.339Z,74.52
2019-05-26T04:33:48.294Z,74.79
2019-05-26T04:36:18.266Z,76.84
2019-05-26T04:38:48.219Z,80.03
2019-05-26T04:41:18.179Z,79.56
2019-05-26T04:43:48.146Z,80.92
2019-05-26T04:46:18.166Z,79.33
2019-05-26T04:48:48.120Z,77.15
2019-05-26T04:51:18.097Z,78.16
2019-05-26T04:53:48.043Z,79.61
2019-05-26T04:56:18.022Z,81.25
2019-05-26T04:58:47.981Z,79.35
2019-05-26T05:01:17.963Z,78.96
2019-05-26T05:03:48.001Z,80.56
2019-05-26T05:06:18.061Z,83.30
2019-05-26T05:08:48.005Z,81.28
2019-05-26T05:11:17.958Z,79.69
2019-05-26T05:13:48.006Z,81.29
2019-05-26T05:16:17.988Z,79.84
2019-05-26T05:18:48.026Z,80.44
2019-05-26T05:21:18.184Z,80.57
2019-05-26T05:23:48.252Z,79.56
2019-05-26T05:26:18.237Z,80.86
2019-05-26T05:28:48.260Z,79.23
2019-05-26T05:31:18.252Z,80.44
2019-05-26T05:33:48.221Z,81.40
2019-05-26T05:36:18.210Z,82.73
2019-05-26T05:38:48.181Z,81.47
2019-05-26T05:41:19.246Z,81.56
2019-05-26T05:43:49.207Z,81.89
2019-05-26T05:46:19.205Z,82.14
2019-05-26T05:48:49.173Z,81.84
2019-05-26T05:51:19.160Z,82.50
2019-05-26T05:53:49.155Z,82.35
2019-05-26T05:56:19.171Z,82.56
2019-05-26T05:58:49.191Z,82.29
2019-05-26T06:01:19.288Z,81.97
2019-05-26T06:03:49.267Z,82.18
2019-05-26T06:06:19.245Z,82.51
2019-05-26T06:08:49.241Z,82.45
2019-05-26T06:11:19.220Z,82.42
2019-05-26T06:13:49.296Z,81.36
2019-05-26T06:16:19.264Z,82.24
2019-05-26T06:18:49.308Z,81.46
2019-05-26T06:21:19.297Z,81.72
2019-05-26T06:23:49.323Z,81.14
2019-05-26T06:26:19.297Z,80.27
2019-05-26T06:28:52.305Z,80.66
2019-05-26T06:31:20.946Z,80.51
2019-05-26T06:33:50.942Z,80.33
2019-05-26T06:36:20.930Z,79.97
2019-05-26T06:38:51.103Z,80.29
2019-05-26T06:41:32.964Z,79.86
2019-05-26T06:43:52.737Z,78.20
2019-05-26T06:46:22.738Z,78.63
2019-05-26T06:48:52.750Z,78.87
2019-05-26T06:51:22.738Z,78.36
2019-05-26T06:53:52.745Z,78.15
2019-05-26T06:56:22.737Z,78.18
2019-05-26T06:58:52.685Z,77.87
2019-05-26T07:01:22.635Z,77.85
2019-05-26T07:03:52.636Z,77.42
2019-05-26T07:06:22.602Z,77.23
2019-05-26T07:08:52.611Z,77.24
2019-05-26T07:11:22.595Z,77.07
2019-05-26T07:13:52.603Z,76.49
2019-05-26T07:16:36.832Z,75.99
2019-05-26T07:18:54.313Z,76.34
2019-05-26T07:21:24.330Z,75.85
2019-05-26T07:23:54.318Z,75.98
2019-05-26T07:26:24.274Z,75.55
2019-05-26T07:28:54.274Z,74.80
2019-05-26T07:31:24.268Z,75.36
2019-05-26T07:33:54.313Z,75.28
2019-05-26T07:36:24.351Z,75.48
2019-05-26T07:38:54.392Z,74.98
2019-05-26T07:41:24.437Z,75.44
2019-05-26T07:43:54.449Z,74.92
2019-05-26T07:46:24.419Z,74.58
2019-05-26T07:48:54.395Z,74.87
2019-05-26T07:51:24.370Z,74.55
2019-05-26T07:53:56.255Z,74.48
2019-05-26T07:56:26.087Z,75.07
2019-05-26T07:58:56.094Z,73.76
2019-05-26T08:01:35.167Z,72.55
2019-05-26T08:03:57.809Z,72.89
2019-05-26T08:06:27.787Z,72.77
2019-05-26T08:08:57.797Z,71.89
2019-05-26T08:11:27.773Z,71.80
2019-05-26T08:13:57.883Z,71.04
2019-05-26T08:16:27.883Z,71.32
2019-05-26T08:18:57.870Z,71.19
2019-05-26T08:21:27.843Z,71.25
2019-05-26T08:23:57.854Z,70.70
2019-05-26T08:26:27.819Z,70.14
2019-05-26T08:28:57.805Z,69.99
2019-05-26T08:31:27.769Z,68.33
2019-05-26T08:33:57.790Z,67.62
2019-05-26T08:36:27.778Z,68.17
2019-05-26T08:38:57.989Z,67.42
2019-05-26T08:41:27.989Z,67.52
2019-05-26T08:43:58.008Z,67.70
2019-05-26T08:46:28.019Z,66.97
2019-05-26T08:48:58.000Z,66.57
2019-05-26T08:51:28.001Z,66.94
2019-05-26T08:53:57.991Z,66.26
2019-05-26T08:56:27.978Z,66.16
2019-05-26T08:58:57.991Z,65.80
2019-05-26T09:01:28.125Z,65.36
2019-05-26T09:03:58.122Z,65.42
2019-05-26T09:06:28.100Z,64.37
2019-05-26T09:08:58.114Z,64.90
2019-05-26T09:11:28.604Z,65.41
2019-05-26T09:13:58.619Z,65.13
2019-05-26T09:16:28.649Z,64.53
2019-05-26T09:18:58.629Z,64.71
2019-05-26T09:21:28.592Z,64.54
2019-05-26T09:23:58.603Z,65.30
2019-05-26T09:26:28.574Z,65.45
2019-05-26T09:28:58.594Z,64.85
2019-05-26T09:31:28.569Z,64.96
2019-05-26T09:33:58.605Z,64.97
2019-05-26T09:36:28.591Z,65.52
2019-05-26T09:38:58.583Z,65.39
2019-05-26T09:41:28.684Z,65.32
2019-05-26T09:43:58.651Z,65.09
2019-05-26T09:46:28.641Z,64.70
2019-05-26T09:49:00.877Z,64.89
2019-05-26T09:51:30.454Z,64.96
2019-05-26T09:54:02.038Z,64.62
2019-05-26T09:56:32.408Z,65.11
2019-05-26T09:59:02.408Z,64.60
2019-05-26T10:01:32.485Z,64.56
2019-05-26T10:04:02.492Z,64.63
2019-05-26T10:06:32.589Z,64.29
2019-05-26T10:09:02.636Z,64.32
2019-05-26T10:11:32.682Z,63.73
2019-05-26T10:14:02.734Z,63.73
2019-05-26T10:16:32.792Z,63.44
2019-05-26T10:19:02.804Z,63.25
2019-05-26T10:21:32.798Z,64.00
2019-05-26T10:24:02.804Z,63.13
2019-05-26T10:26:32.808Z,63.82
2019-05-26T10:29:02.806Z,63.67
2019-05-26T10:31:32.816Z,64.00
2019-05-26T10:34:02.846Z,64.48
2019-05-26T10:36:32.868Z,64.08
2019-05-26T10:39:02.883Z,64.48
2019-05-26T10:41:32.926Z,64.83
2019-05-26T10:44:02.927Z,65.10
2019-05-26T10:46:32.968Z,64.83
2019-05-26T10:49:02.970Z,65.04
2019-05-26T10:51:33.261Z,65.01
2019-05-26T10:54:03.229Z,65.47
2019-05-26T10:56:33.242Z,65.61
2019-05-26T10:59:03.242Z,65.30
2019-05-26T11:01:33.229Z,65.89
2019-05-26T11:04:03.223Z,66.44
2019-05-26T11:06:33.232Z,66.58
2019-05-26T11:09:03.303Z,66.59
2019-05-26T11:11:34.122Z,66.89
2019-05-26T11:14:04.609Z,67.09
2019-05-26T11:16:34.598Z,67.28
2019-05-26T11:19:04.587Z,67.36
2019-05-26T11:21:34.619Z,67.45
2019-05-26T11:24:04.717Z,66.96
2019-05-26T11:26:34.733Z,66.73
2019-05-26T11:29:05.037Z,67.36
2019-05-26T11:31:35.084Z,67.10
2019-05-26T11:34:05.166Z,67.11
2019-05-26T11:36:35.234Z,66.69
2019-05-26T11:39:07.069Z,66.34
2019-05-26T11:41:37.081Z,66.25
2019-05-26T11:44:17.473Z,66.15
2019-05-26T11:46:38.764Z,65.67
2019-05-26T11:49:08.737Z,65.69
2019-05-26T11:51:38.766Z,65.61
2019-05-26T11:54:08.769Z,65.52
2019-05-26T11:56:38.741Z,64.86
2019-05-26T11:59:08.769Z,65.79
2019-05-26T12:01:38.824Z,65.11
2019-05-26T12:04:08.806Z,65.35
2019-05-26T12:06:38.791Z,65.23
2019-05-26T12:09:09.529Z,65.30
2019-05-26T12:11:39.511Z,65.23
2019-05-26T12:14:09.539Z,64.48
2019-05-26T12:16:39.682Z,64.13
2019-05-26T12:19:09.807Z,63.78
2019-05-26T12:21:39.791Z,63.29
2019-05-26T12:24:09.863Z,63.47
2019-05-26T12:26:39.869Z,62.58
2019-05-26T12:29:09.848Z,62.88
2019-05-26T12:31:39.892Z,62.23
2019-05-26T12:34:09.960Z,62.28
2019-05-26T12:36:39.946Z,61.23
2019-05-26T12:39:10.077Z,61.13
2019-05-26T12:41:40.053Z,60.43
2019-05-26T12:44:11.066Z,60.82
2019-05-26T12:46:41.191Z,61.00
2019-05-26T12:49:11.207Z,60.61
2019-05-26T12:51:41.236Z,61.33
2019-05-26T12:54:11.245Z,60.72
2019-05-26T12:56:41.231Z,60.80
2019-05-26T12:59:11.325Z,60.45
2019-05-26T13:01:41.332Z,60.67
2019-05-26T13:04:11.388Z,60.36
2019-05-26T13:06:41.488Z,60.82
2019-05-26T13:09:12.018Z,60.49
2019-05-26T13:11:42.050Z,60.89
2019-05-26T13:14:12.091Z,59.97
2019-05-26T13:16:42.084Z,60.00
2019-05-26T13:19:12.118Z,60.27
2019-05-26T13:21:42.137Z,59.66
2019-05-26T13:24:12.186Z,59.82
2019-05-26T13:26:42.191Z,59.53
2019-05-26T13:29:12.388Z,59.53
2019-05-26T13:31:42.515Z,59.48
2019-05-26T13:34:12.537Z,59.16
2019-05-26T13:36:42.628Z,58.78
2019-05-26T13:39:12.660Z,58.43
2019-05-26T13:41:42.629Z,58.70
2019-05-26T13:44:12.639Z,57.99
2019-05-26T13:46:42.710Z,58.17
2019-05-26T13:49:12.722Z,57.73
2019-05-26T13:51:42.704Z,57.74
2019-05-26T13:54:12.731Z,58.15
2019-05-26T13:56:42.719Z,58.50
2019-05-26T13:59:12.718Z,58.32
2019-05-26T14:01:42.709Z,58.29
2019-05-26T14:04:12.725Z,57.99
2019-05-26T14:06:42.698Z,58.34
2019-05-26T14:09:12.722Z,58.26
2019-05-26T14:11:42.715Z,58.17
2019-05-26T14:14:12.771Z,58.03
2019-05-26T14:16:43.778Z,57.89
2019-05-26T14:19:13.979Z,58.33
2019-05-26T14:21:43.993Z,58.12
2019-05-26T14:24:13.976Z,58.45
2019-05-26T14:26:44.005Z,58.14
2019-05-26T14:29:13.988Z,57.59
2019-05-26T14:31:43.966Z,57.92
2019-05-26T14:34:13.965Z,57.81
2019-05-26T14:36:43.979Z,57.52
2019-05-26T14:39:13.999Z,57.35
2019-05-26T14:41:43.996Z,57.56
2019-05-26T14:44:13.984Z,57.51
2019-05-26T14:46:44.006Z,57.87
2019-05-26T14:49:14.400Z,58.07
2019-05-26T14:51:44.424Z,58.09
2019-05-26T14:54:14.417Z,57.63
2019-05-26T14:56:44.434Z,57.60
2019-05-26T14:59:14.444Z,57.63
2019-05-26T15:01:44.476Z,57.72
2019-05-26T15:04:14.582Z,57.52
2019-05-26T15:06:44.712Z,57.85
2019-05-26T15:09:24.851Z,57.67
2019-05-26T15:11:46.903Z,58.25
2019-05-26T15:14:16.982Z,57.79
2019-05-26T15:16:47.049Z,58.56
2019-05-26T15:19:17.448Z,58.12
2019-05-26T15:21:47.458Z,58.05
2019-05-26T15:24:17.428Z,58.03
2019-05-26T15:26:47.448Z,58.17
2019-05-26T15:29:17.472Z,58.58
2019-05-26T15:31:47.492Z,58.60
2019-05-26T15:34:17.510Z,58.75
2019-05-26T15:36:47.623Z,59.03
2019-05-26T15:39:17.625Z,59.28
2019-05-26T15:41:47.670Z,59.08
2019-05-26T15:44:17.659Z,59.38
2019-05-26T15:46:47.697Z,59.73
2019-05-26T15:49:17.676Z,60.58
2019-05-26T15:51:47.804Z,60.68
2019-05-26T15:54:17.800Z,61.02
2019-05-26T15:56:47.871Z,61.32
2019-05-26T15:59:17.859Z,61.52
2019-05-26T16:01:48.371Z,61.98
2019-05-26T16:04:18.475Z,61.49
2019-05-26T16:06:48.556Z,61.01
2019-05-26T16:09:18.724Z,61.01
2019-05-26T16:11:48.743Z,60.76
2019-05-26T16:14:18.765Z,60.21
2019-05-26T16:16:51.283Z,61.05
2019-05-26T16:19:20.505Z,61.24
2019-05-26T16:21:50.498Z,60.91
2019-05-26T16:24:20.522Z,61.47
2019-05-26T16:26:50.566Z,61.22
2019-05-26T16:29:20.586Z,60.84
2019-05-26T16:31:50.582Z,60.45
2019-05-26T16:34:20.572Z,60.01
2019-05-26T16:36:50.576Z,60.49
2019-05-26T16:39:34.349Z,60.61
2019-05-26T16:41:52.299Z,60.36
2019-05-26T16:44:22.263Z,60.07
2019-05-26T16:46:56.332Z,60.18
2019-05-26T16:49:23.968Z,59.79
2019-05-26T16:51:53.959Z,60.20
2019-05-26T16:54:24.068Z,60.14
2019-05-26T16:56:54.077Z,60.44
2019-05-26T16:59:24.104Z,60.12
2019-05-26T17:01:54.101Z,59.94
2019-05-26T17:04:24.099Z,60.23
2019-05-26T17:06:54.122Z,60.15
2019-05-26T17:09:24.129Z,60.34
2019-05-26T17:11:54.112Z,60.20
2019-05-26T17:14:24.250Z,60.34
2019-05-26T17:16:54.246Z,60.53
2019-05-26T17:19:24.268Z,60.44
2019-05-26T17:21:54.238Z,60.55
2019-05-26T17:24:24.254Z,60.59
2019-05-26T17:26:54.250Z,60.82
2019-05-26T17:29:24.258Z,60.85
2019-05-26T17:31:54.241Z,60.73
2019-05-26T17:34:24.246Z,60.91
2019-05-26T17:36:54.248Z,61.12
2019-05-26T17:39:24.263Z,61.39
2019-05-26T17:41:54.277Z,61.48
2019-05-26T17:44:24.320Z,61.30
2019-05-26T17:46:54.332Z,61.55
2019-05-26T17:49:24.344Z,61.63
2019-05-26T17:51:54.316Z,61.45
2019-05-26T17:54:24.413Z,61.90
2019-05-26T17:56:54.412Z,62.92
2019-05-26T17:59:24.446Z,62.93
2019-05-26T18:01:54.458Z,63.03
2019-05-26T18:04:24.495Z,62.94
2019-05-26T18:06:54.506Z,62.94
2019-05-26T18:09:24.568Z,63.08
2019-05-26T18:11:54.590Z,63.30
2019-05-26T18:14:24.661Z,63.15
2019-05-26T18:16:54.693Z,63.78
2019-05-26T18:19:24.718Z,63.96
2019-05-26T18:21:54.729Z,64.60
2019-05-26T18:24:24.842Z,66.36
2019-05-26T18:26:54.838Z,67.49
2019-05-26T18:29:24.860Z,69.08
2019-05-26T18:31:55.126Z,70.31
2019-05-26T18:34:25.257Z,72.24
2019-05-26T18:36:55.270Z,74.21
2019-05-26T18:39:25.276Z,76.26
2019-05-26T18:41:55.308Z,76.10
2019-05-26T18:44:25.353Z,76.80
2019-05-26T18:46:55.322Z,77.62
2019-05-26T18:49:25.348Z,79.54
2019-05-26T18:51:55.325Z,79.99
2019-05-26T18:54:25.379Z,81.79
2019-05-26T18:56:55.365Z,81.77
2019-05-26T18:59:25.434Z,81.79
2019-05-26T19:01:55.463Z,82.73
2019-05-26T19:04:25.455Z,83.61
2019-05-26T19:06:55.510Z,83.29
2019-05-26T19:09:25.550Z,83.39
2019-05-26T19:11:55.527Z,83.84
2019-05-26T19:14:25.564Z,85.12
2019-05-26T19:16:55.581Z,84.51
2019-05-26T19:19:25.582Z,85.69
2019-05-26T19:21:55.617Z,86.30
2019-05-26T19:24:25.638Z,85.00
2019-05-26T19:26:55.780Z,85.33
2019-05-26T19:29:25.791Z,87.68
2019-05-26T19:31:55.804Z,88.37
2019-05-26T19:34:25.845Z,87.93
2019-05-26T19:36:55.895Z,87.98
2019-05-26T19:39:25.974Z,86.56
2019-05-26T19:41:55.938Z,86.87
2019-05-26T19:44:25.928Z,88.15
2019-05-26T19:46:55.938Z,88.68
2019-05-26T19:49:25.937Z,89.68
2019-05-26T19:51:56.022Z,89.55
2019-05-26T19:54:26.022Z,89.51
2019-05-26T19:56:56.055Z,91.55
2019-05-26T19:59:26.042Z,91.29
2019-05-26T20:01:56.057Z,91.61
2019-05-26T20:04:26.040Z,92.28
2019-05-26T20:06:56.078Z,93.76
2019-05-26T20:09:26.077Z,92.56
2019-05-26T20:11:56.140Z,92.80
2019-05-26T20:14:26.363Z,92.42
2019-05-26T20:16:56.356Z,91.06
2019-05-26T20:19:26.355Z,90.96
2019-05-26T20:21:56.363Z,92.22
2019-05-26T20:24:26.366Z,91.88
2019-05-26T20:26:56.367Z,91.56
2019-05-26T20:29:26.353Z,90.67
2019-05-26T20:31:56.436Z,89.40
2019-05-26T20:34:26.483Z,90.86
2019-05-26T20:36:56.506Z,89.71
2019-05-26T20:39:26.535Z,89.68
2019-05-26T20:41:56.578Z,89.03
2019-05-26T20:44:26.546Z,89.46
2019-05-26T20:46:56.573Z,88.73
2019-05-26T20:49:26.589Z,90.60
2019-05-26T20:51:56.603Z,89.12
2019-05-26T20:54:26.583Z,88.42
2019-05-26T20:56:56.595Z,87.43
2019-05-26T20:59:26.586Z,88.65
2019-05-26T21:01:56.603Z,89.57
2019-05-26T21:04:26.630Z,89.44
2019-05-26T21:06:56.668Z,88.31
2019-05-26T21:09:27.238Z,87.27
2019-05-26T21:11:57.214Z,85.35
2019-05-26T21:14:28.067Z,84.67
2019-05-26T21:16:58.151Z,86.12
2019-05-26T21:19:28.168Z,86.48
2019-05-26T21:21:58.215Z,86.00
2019-05-26T21:24:28.258Z,85.17
2019-05-26T21:26:58.291Z,85.01
2019-05-26T21:29:28.277Z,85.78
2019-05-26T21:31:58.299Z,84.35
2019-05-26T21:34:28.313Z,83.86
2019-05-26T21:36:58.389Z,85.67
2019-05-26T21:39:28.398Z,84.60
2019-05-26T21:41:58.445Z,84.71
2019-05-26T21:44:28.567Z,84.55
2019-05-26T21:46:58.641Z,85.40
2019-05-26T21:49:28.716Z,86.28
2019-05-26T21:51:58.890Z,86.25
2019-05-26T21:54:29.003Z,85.28
2019-05-26T21:56:58.994Z,85.68
2019-05-26T21:59:29.089Z,86.09
2019-05-26T22:01:59.172Z,85.60
2019-05-26T22:04:29.320Z,85.46
2019-05-26T22:06:59.367Z,85.23
2019-05-26T22:09:29.423Z,85.21
2019-05-26T22:11:59.481Z,85.05
2019-05-26T22:14:29.501Z,85.38
2019-05-26T22:16:59.549Z,84.66
2019-05-26T22:19:29.941Z,84.39
2019-05-26T22:21:59.957Z,84.22
2019-05-26T22:24:30.038Z,83.87
2019-05-26T22:27:00.100Z,83.24
2019-05-26T22:29:30.123Z,83.46
2019-05-26T22:32:00.205Z,83.08
2019-05-26T22:34:30.279Z,83.03
2019-05-26T22:37:00.277Z,81.46
2019-05-26T22:39:30.353Z,81.98
2019-05-26T22:42:00.668Z,81.26
2019-05-26T22:44:30.737Z,82.52
2019-05-26T22:47:00.741Z,84.62
2019-05-26T22:49:30.840Z,86.01
2019-05-26T22:52:00.805Z,85.81
2019-05-26T22:54:30.913Z,87.70
2019-05-26T22:57:00.873Z,88.85
2019-05-26T22:59:30.925Z,89.10
2019-05-26T23:02:01.007Z,88.75
2019-05-26T23:04:30.997Z,89.72
2019-05-26T23:07:01.068Z,91.94
2019-05-26T23:09:31.187Z,92.23
2019-05-26T23:12:01.164Z,93.06
2019-05-26T23:14:31.237Z,92.34
2019-05-26T23:17:01.262Z,92.56
2019-05-26T23:19:31.249Z,93.54
2019-05-26T23:22:01.348Z,92.33
2019-05-26T23:24:31.626Z,93.44
2019-05-26T23:27:01.771Z,92.93
2019-05-26T23:29:31.772Z,94.10
2019-05-26T23:32:01.768Z,93.52
2019-05-26T23:34:32.583Z,92.52
2019-05-26T23:37:02.598Z,92.50
2019-05-26T23:39:32.697Z,91.32
2019-05-26T23:42:02.735Z,92.42
2019-05-26T23:44:32.686Z,94.32
2019-05-26T23:47:02.684Z,94.22
2019-05-26T23:49:32.672Z,92.33
2019-05-26T23:52:02.682Z,94.39
2019-05-26T23:54:32.655Z,92.72
2019-05-26T23:57:02.680Z,92.66
2019-05-26T23:59:32.652Z,93.02
